sensor_id;sensor_type;location;lat;lon;timestamp;pressure;altitude;pressure_sealevel;temperature;humidity
2184;BME280;1098;48.940;8.962;2023-02-01T00:01:40;99161.00;;;4.84;100.00
2184;BME280;1098;48.940;8.962;2023-02-01T00:04:08;99166.94;;;5.02;100.00
2184;BME280;1098;48.940;8.962;2023-02-01T00:06:36;99158.66;;;4.89;100.00
2184;BME280;1098;48.940;8.962;2023-02-01T00:09:05;99153.28;;;4.89;100.00
2184;BME280;1098;48.940;8.962;2023-02-01T00:11:33;99153.25;;;4.97;100.00
2184;BME280;1098;48.940;8.962;2023-02-01T00:14:01;99162.34;;;4.88;100.00
2184;BME280;1098;48.940;8.962;2023-02-01T00:16:30;99163.56;;;5.08;100.00
2184;BME280;1098;48.940;8.962;2023-02-01T00:19:00;99170.09;;;4.75;100.00
2184;BME280;1098;48.940;8.962;2023-02-01T00:21:28;99165.94;;;5.03;100.00
2184;BME280;1098;48.940;8.962;2023-02-01T00:23:57;99160.09;;;5.00;100.00
2184;BME280;1098;48.940;8.962;2023-02-01T00:26:26;99156.78;;;4.98;100.00
2184;BME280;1098;48.940;8.962;2023-02-01T00:28:55;99160.28;;;4.98;100.00
2184;BME280;1098;48.940;8.962;2023-02-01T00:31:23;99152.13;;;4.83;100.00
2184;BME280;1098;48.940;8.962;2023-02-01T00:33:55;99156.16;;;5.18;100.00
2184;BME280;1098;48.940;8.962;2023-02-01T00:36:24;99154.72;;;5.00;100.00
2184;BME280;1098;48.940;8.962;2023-02-01T00:38:52;99153.91;;;4.99;100.00
2184;BME280;1098;48.940;8.962;2023-02-01T00:41:21;99150.75;;;4.96;100.00
2184;BME280;1098;48.940;8.962;2023-02-01T00:43:50;99129.50;;;4.94;100.00
2184;BME280;1098;48.940;8.962;2023-02-01T00:46:18;99090.69;;;4.90;100.00
2184;BME280;1098;48.940;8.962;2023-02-01T00:48:47;99114.09;;;4.96;100.00
2184;BME280;1098;48.940;8.962;2023-02-01T00:51:16;99108.47;;;5.14;100.00
2184;BME280;1098;48.940;8.962;2023-02-01T00:53:45;99107.19;;;5.02;100.00
2184;BME280;1098;48.940;8.962;2023-02-01T00:56:13;99115.91;;;5.27;100.00
2184;BME280;1098;48.940;8.962;2023-02-01T00:58:42;99109.19;;;5.31;100.00
2184;BME280;1098;48.940;8.962;2023-02-01T01:01:12;99101.72;;;4.95;100.00
2184;BME280;1098;48.940;8.962;2023-02-01T01:03:41;99097.63;;;5.07;100.00
2184;BME280;1098;48.940;8.962;2023-02-01T01:06:10;99089.72;;;5.14;100.00
2184;BME280;1098;48.940;8.962;2023-02-01T01:08:39;99094.72;;;5.17;100.00
2184;BME280;1098;48.940;8.962;2023-02-01T01:11:10;99101.75;;;5.18;100.00
2184;BME280;1098;48.940;8.962;2023-02-01T01:13:38;99099.84;;;5.27;100.00
2184;BME280;1098;48.940;8.962;2023-02-01T01:16:07;99103.97;;;5.37;100.00
2184;BME280;1098;48.940;8.962;2023-02-01T01:18:35;99106.56;;;5.23;100.00
2184;BME280;1098;48.940;8.962;2023-02-01T01:21:04;99102.34;;;5.28;100.00
2184;BME280;1098;48.940;8.962;2023-02-01T01:23:33;99121.47;;;5.48;100.00
2184;BME280;1098;48.940;8.962;2023-02-01T01:26:04;99116.09;;;5.48;100.00
2184;BME280;1098;48.940;8.962;2023-02-01T01:28:35;99125.28;;;5.31;100.00
2184;BME280;1098;48.940;8.962;2023-02-01T01:31:03;99123.13;;;5.49;100.00
2184;BME280;1098;48.940;8.962;2023-02-01T01:33:36;99118.19;;;5.38;100.00
2184;BME280;1098;48.940;8.962;2023-02-01T01:36:04;99124.38;;;5.38;100.00
2184;BME280;1098;48.940;8.962;2023-02-01T01:38:32;99121.06;;;5.36;100.00
2184;BME280;1098;48.940;8.962;2023-02-01T01:41:01;99112.22;;;5.50;100.00
2184;BME280;1098;48.940;8.962;2023-02-01T01:46:24;99111.09;;;5.45;100.00
2184;BME280;1098;48.940;8.962;2023-02-01T01:48:55;99105.69;;;5.53;100.00
2184;BME280;1098;48.940;8.962;2023-02-01T01:51:24;99104.41;;;5.41;100.00
2184;BME280;1098;48.940;8.962;2023-02-01T01:53:57;99101.81;;;5.56;100.00
2184;BME280;1098;48.940;8.962;2023-02-01T01:56:27;99110.16;;;5.61;100.00
2184;BME280;1098;48.940;8.962;2023-02-01T01:58:56;99109.31;;;5.60;100.00
2184;BME280;1098;48.940;8.962;2023-02-01T02:01:26;99105.25;;;5.64;100.00
2184;BME280;1098;48.940;8.962;2023-02-01T02:03:55;99117.81;;;5.64;100.00
2184;BME280;1098;48.940;8.962;2023-02-01T02:06:27;99094.19;;;5.44;100.00
2184;BME280;1098;48.940;8.962;2023-02-01T02:09:00;99092.34;;;5.45;100.00
2184;BME280;1098;48.940;8.962;2023-02-01T02:11:32;99088.31;;;5.64;100.00
2184;BME280;1098;48.940;8.962;2023-02-01T02:14:00;99084.91;;;5.55;100.00
2184;BME280;1098;48.940;8.962;2023-02-01T02:16:35;99086.91;;;5.53;100.00
2184;BME280;1098;48.940;8.962;2023-02-01T02:19:28;99092.13;;;5.69;100.00
2184;BME280;1098;48.940;8.962;2023-02-01T02:22:08;99090.56;;;5.60;100.00
2184;BME280;1098;48.940;8.962;2023-02-01T02:24:57;99085.13;;;5.45;100.00
2184;BME280;1098;48.940;8.962;2023-02-01T02:27:35;99090.59;;;5.52;100.00
2184;BME280;1098;48.940;8.962;2023-02-01T02:30:31;99079.41;;;5.48;100.00
2184;BME280;1098;48.940;8.962;2023-02-01T02:35:53;99084.91;;;5.55;100.00
2184;BME280;1098;48.940;8.962;2023-02-01T02:38:27;99083.53;;;5.59;100.00
2184;BME280;1098;48.940;8.962;2023-02-01T02:41:00;99078.53;;;5.56;100.00
2184;BME280;1098;48.940;8.962;2023-02-01T02:43:32;99076.63;;;5.79;100.00
2184;BME280;1098;48.940;8.962;2023-02-01T02:46:21;99069.28;;;5.59;100.00
2184;BME280;1098;48.940;8.962;2023-02-01T02:49:09;99083.03;;;5.56;100.00
2184;BME280;1098;48.940;8.962;2023-02-01T02:51:42;99076.75;;;5.63;100.00
2184;BME280;1098;48.940;8.962;2023-02-01T02:54:30;99073.53;;;5.68;100.00
2184;BME280;1098;48.940;8.962;2023-02-01T02:57:19;99068.03;;;5.84;100.00
2184;BME280;1098;48.940;8.962;2023-02-01T03:00:08;99066.53;;;5.44;100.00
2184;BME280;1098;48.940;8.962;2023-02-01T03:02:54;99055.63;;;5.68;100.00
2184;BME280;1098;48.940;8.962;2023-02-01T03:05:41;99045.66;;;5.77;100.00
2184;BME280;1098;48.940;8.962;2023-02-01T03:08:12;99028.16;;;5.66;100.00
2184;BME280;1098;48.940;8.962;2023-02-01T03:10:47;99023.94;;;5.86;100.00
2184;BME280;1098;48.940;8.962;2023-02-01T03:13:18;99017.53;;;5.73;100.00
2184;BME280;1098;48.940;8.962;2023-02-01T08:06:47;99056.72;;;5.59;100.00
2184;BME280;1098;48.940;8.962;2023-02-01T08:09:15;99059.59;;;5.72;100.00
2184;BME280;1098;48.940;8.962;2023-02-01T08:11:44;99046.63;;;5.61;100.00
2184;BME280;1098;48.940;8.962;2023-02-01T08:14:12;99052.91;;;5.91;100.00
2184;BME280;1098;48.940;8.962;2023-02-01T08:16:40;99049.25;;;5.69;100.00
2184;BME280;1098;48.940;8.962;2023-02-01T08:19:08;99048.25;;;5.85;100.00
2184;BME280;1098;48.940;8.962;2023-02-01T08:21:37;99067.53;;;5.89;100.00
2184;BME280;1098;48.940;8.962;2023-02-01T08:24:08;99070.03;;;6.05;100.00
2184;BME280;1098;48.940;8.962;2023-02-01T08:26:37;99061.53;;;6.01;100.00
2184;BME280;1098;48.940;8.962;2023-02-01T08:29:06;99066.78;;;6.24;100.00
2184;BME280;1098;48.940;8.962;2023-02-01T08:31:34;99073.19;;;5.94;100.00
2184;BME280;1098;48.940;8.962;2023-02-01T08:34:02;99069.78;;;6.14;100.00
2184;BME280;1098;48.940;8.962;2023-02-01T08:36:31;99074.97;;;6.16;100.00
2184;BME280;1098;48.940;8.962;2023-02-01T08:39:00;99074.00;;;6.09;100.00
2184;BME280;1098;48.940;8.962;2023-02-01T08:41:29;99091.97;;;6.08;100.00
2184;BME280;1098;48.940;8.962;2023-02-01T08:43:57;99092.78;;;6.09;100.00
2184;BME280;1098;48.940;8.962;2023-02-01T08:46:26;99106.13;;;6.17;100.00
2184;BME280;1098;48.940;8.962;2023-02-01T08:48:54;99113.91;;;6.12;100.00
2184;BME280;1098;48.940;8.962;2023-02-01T08:51:23;99114.53;;;6.14;100.00
2184;BME280;1098;48.940;8.962;2023-02-01T08:53:51;99116.44;;;5.91;100.00
2184;BME280;1098;48.940;8.962;2023-02-01T08:56:19;99127.47;;;5.96;100.00
2184;BME280;1098;48.940;8.962;2023-02-01T08:58:49;99121.31;;;5.64;100.00
2184;BME280;1098;48.940;8.962;2023-02-01T09:01:17;99117.75;;;5.72;100.00
2184;BME280;1098;48.940;8.962;2023-02-01T09:03:46;99123.97;;;5.49;100.00
2184;BME280;1098;48.940;8.962;2023-02-01T09:06:15;99109.69;;;5.34;100.00
2184;BME280;1098;48.940;8.962;2023-02-01T09:08:46;99110.25;;;5.67;100.00
2184;BME280;1098;48.940;8.962;2023-02-01T09:11:18;99111.59;;;5.86;100.00
2184;BME280;1098;48.940;8.962;2023-02-01T09:13:47;99118.72;;;6.02;100.00
2184;BME280;1098;48.940;8.962;2023-02-01T09:16:17;99109.91;;;5.85;100.00
2184;BME280;1098;48.940;8.962;2023-02-01T09:18:45;99111.19;;;5.97;100.00
2184;BME280;1098;48.940;8.962;2023-02-01T09:21:34;99072.66;;;5.75;100.00
2184;BME280;1098;48.940;8.962;2023-02-01T09:24:03;99110.56;;;6.25;100.00
2184;BME280;1098;48.940;8.962;2023-02-01T09:26:31;99116.03;;;6.02;100.00
2184;BME280;1098;48.940;8.962;2023-02-01T09:29:00;99077.94;;;6.21;100.00
2184;BME280;1098;48.940;8.962;2023-02-01T09:31:34;99096.31;;;6.24;100.00
2184;BME280;1098;48.940;8.962;2023-02-01T09:34:03;99092.34;;;6.35;100.00
2184;BME280;1098;48.940;8.962;2023-02-01T09:36:31;99099.66;;;6.55;100.00
2184;BME280;1098;48.940;8.962;2023-02-01T09:39:00;99097.00;;;6.41;100.00
2184;BME280;1098;48.940;8.962;2023-02-01T09:41:40;99083.66;;;6.62;100.00
2184;BME280;1098;48.940;8.962;2023-02-01T09:44:14;99080.78;;;6.64;100.00
2184;BME280;1098;48.940;8.962;2023-02-01T09:46:47;99093.56;;;6.62;100.00
2184;BME280;1098;48.940;8.962;2023-02-01T09:49:16;99079.69;;;6.43;100.00
2184;BME280;1098;48.940;8.962;2023-02-01T09:51:47;99092.72;;;6.61;100.00
2184;BME280;1098;48.940;8.962;2023-02-01T09:54:17;99082.59;;;6.78;100.00
2184;BME280;1098;48.940;8.962;2023-02-01T09:56:46;99086.88;;;6.58;100.00
2184;BME280;1098;48.940;8.962;2023-02-01T09:59:20;99094.63;;;6.67;100.00
2184;BME280;1098;48.940;8.962;2023-02-01T10:01:53;99100.22;;;6.51;100.00
2184;BME280;1098;48.940;8.962;2023-02-01T10:04:21;99107.06;;;6.53;100.00
2184;BME280;1098;48.940;8.962;2023-02-01T10:06:53;99115.78;;;6.55;100.00
2184;BME280;1098;48.940;8.962;2023-02-01T10:09:25;99124.38;;;6.80;100.00
2184;BME280;1098;48.940;8.962;2023-02-01T10:12:04;99132.03;;;6.69;100.00
2184;BME280;1098;48.940;8.962;2023-02-01T10:14:46;99142.50;;;6.93;100.00
2184;BME280;1098;48.940;8.962;2023-02-01T10:17:23;99141.09;;;6.97;100.00
2184;BME280;1098;48.940;8.962;2023-02-01T10:19:56;99134.75;;;6.83;100.00
2184;BME280;1098;48.940;8.962;2023-02-01T10:22:30;99136.50;;;6.47;100.00
2184;BME280;1098;48.940;8.962;2023-02-01T10:25:23;99144.94;;;6.44;100.00
2184;BME280;1098;48.940;8.962;2023-02-01T10:27:54;99145.41;;;6.62;100.00
2184;BME280;1098;48.940;8.962;2023-02-01T10:30:24;99138.75;;;6.43;100.00
2184;BME280;1098;48.940;8.962;2023-02-01T10:32:59;99153.91;;;6.80;100.00
2184;BME280;1098;48.940;8.962;2023-02-01T10:35:31;99157.59;;;6.94;100.00
2184;BME280;1098;48.940;8.962;2023-02-01T10:38:07;99153.34;;;6.85;100.00
2184;BME280;1098;48.940;8.962;2023-02-01T10:40:40;99160.38;;;6.86;100.00
2184;BME280;1098;48.940;8.962;2023-02-01T10:43:09;99164.44;;;6.67;100.00
2184;BME280;1098;48.940;8.962;2023-02-01T10:45:37;99168.91;;;6.75;100.00
2184;BME280;1098;48.940;8.962;2023-02-01T10:48:07;99162.97;;;6.79;100.00
2184;BME280;1098;48.940;8.962;2023-02-01T10:50:37;99165.75;;;6.71;100.00
2184;BME280;1098;48.940;8.962;2023-02-01T10:53:10;99162.88;;;7.02;100.00
2184;BME280;1098;48.940;8.962;2023-02-01T10:55:40;99167.06;;;6.75;100.00
2184;BME280;1098;48.940;8.962;2023-02-01T10:58:14;99146.56;;;6.89;100.00
2184;BME280;1098;48.940;8.962;2023-02-01T11:00:44;99160.94;;;6.67;100.00
2184;BME280;1098;48.940;8.962;2023-02-01T11:03:21;99150.38;;;6.80;100.00
2184;BME280;1098;48.940;8.962;2023-02-01T11:05:50;99148.41;;;6.88;100.00
2184;BME280;1098;48.940;8.962;2023-02-01T11:08:18;99141.72;;;7.14;100.00
2184;BME280;1098;48.940;8.962;2023-02-01T11:10:47;99153.50;;;6.98;100.00
2184;BME280;1098;48.940;8.962;2023-02-01T11:13:17;99142.03;;;7.04;100.00
2184;BME280;1098;48.940;8.962;2023-02-01T11:15:46;99163.59;;;7.11;100.00
2184;BME280;1098;48.940;8.962;2023-02-01T11:18:16;99144.59;;;7.12;100.00
2184;BME280;1098;48.940;8.962;2023-02-01T11:20:46;99154.25;;;6.92;100.00
2184;BME280;1098;48.940;8.962;2023-02-01T11:23:21;99129.75;;;6.80;100.00
2184;BME280;1098;48.940;8.962;2023-02-01T11:25:53;99134.94;;;6.82;100.00
2184;BME280;1098;48.940;8.962;2023-02-01T11:28:24;99136.13;;;6.79;100.00
2184;BME280;1098;48.940;8.962;2023-02-01T11:30:56;99129.97;;;7.00;100.00
2184;BME280;1098;48.940;8.962;2023-02-01T11:33:29;99128.59;;;7.04;100.00
2184;BME280;1098;48.940;8.962;2023-02-01T11:36:07;99110.94;;;7.16;100.00
2184;BME280;1098;48.940;8.962;2023-02-01T11:38:36;99115.06;;;7.34;100.00
2184;BME280;1098;48.940;8.962;2023-02-01T11:41:12;99104.97;;;7.00;100.00
2184;BME280;1098;48.940;8.962;2023-02-01T11:43:53;99109.13;;;7.02;100.00
2184;BME280;1098;48.940;8.962;2023-02-01T11:46:26;99105.25;;;7.05;100.00
2184;BME280;1098;48.940;8.962;2023-02-01T11:48:57;99102.22;;;6.78;100.00
2184;BME280;1098;48.940;8.962;2023-02-01T11:51:52;99088.75;;;6.93;100.00
2184;BME280;1098;48.940;8.962;2023-02-01T11:54:29;99099.31;;;7.31;100.00
2184;BME280;1098;48.940;8.962;2023-02-01T11:57:07;99074.59;;;6.99;100.00
2184;BME280;1098;48.940;8.962;2023-02-01T11:59:45;99080.34;;;7.17;100.00
2184;BME280;1098;48.940;8.962;2023-02-01T12:02:32;99088.50;;;6.88;100.00
2184;BME280;1098;48.940;8.962;2023-02-01T12:05:19;99092.59;;;6.69;100.00
2184;BME280;1098;48.940;8.962;2023-02-01T12:08:06;99095.91;;;6.86;100.00
2184;BME280;1098;48.940;8.962;2023-02-01T12:10:40;99082.03;;;6.82;100.00
2184;BME280;1098;48.940;8.962;2023-02-01T12:13:14;99076.72;;;7.04;100.00
2184;BME280;1098;48.940;8.962;2023-02-01T12:15:49;99080.78;;;6.64;100.00
2184;BME280;1098;48.940;8.962;2023-02-01T12:18:29;99085.59;;;7.04;100.00
2184;BME280;1098;48.940;8.962;2023-02-01T12:21:03;99072.41;;;7.09;100.00
2184;BME280;1098;48.940;8.962;2023-02-01T12:23:44;99079.44;;;7.10;100.00
2184;BME280;1098;48.940;8.962;2023-02-01T12:26:22;99084.59;;;7.27;100.00
2184;BME280;1098;48.940;8.962;2023-02-01T12:29:04;99074.34;;;7.15;100.00
2184;BME280;1098;48.940;8.962;2023-02-01T12:31:49;99086.50;;;7.11;100.00
2184;BME280;1098;48.940;8.962;2023-02-01T12:34:33;99067.56;;;7.19;100.00
2184;BME280;1098;48.940;8.962;2023-02-01T12:37:15;99064.59;;;7.57;100.00
2184;BME280;1098;48.940;8.962;2023-02-01T12:39:48;99068.66;;;7.25;100.00
2184;BME280;1098;48.940;8.962;2023-02-01T12:42:22;99075.38;;;7.36;100.00
2184;BME280;1098;48.940;8.962;2023-02-01T12:44:53;99086.06;;;7.29;100.00
2184;BME280;1098;48.940;8.962;2023-02-01T12:47:25;99082.22;;;7.17;100.00
2184;BME280;1098;48.940;8.962;2023-02-01T12:49:56;99077.53;;;7.04;100.00
2184;BME280;1098;48.940;8.962;2023-02-01T12:52:27;99092.81;;;7.04;100.00
2184;BME280;1098;48.940;8.962;2023-02-01T12:54:58;99080.41;;;7.03;100.00
2184;BME280;1098;48.940;8.962;2023-02-01T12:57:30;99082.97;;;6.75;100.00
2184;BME280;1098;48.940;8.962;2023-02-01T13:00:01;99094.09;;;6.72;100.00
2184;BME280;1098;48.940;8.962;2023-02-01T13:02:35;99073.94;;;6.97;100.00
2184;BME280;1098;48.940;8.962;2023-02-01T13:05:12;99060.19;;;7.07;100.00
2184;BME280;1098;48.940;8.962;2023-02-01T13:07:46;99066.09;;;6.81;100.00
2184;BME280;1098;48.940;8.962;2023-02-01T13:10:21;99050.22;;;6.65;100.00
2184;BME280;1098;48.940;8.962;2023-02-01T13:12:57;99048.16;;;6.67;100.00
2184;BME280;1098;48.940;8.962;2023-02-01T13:15:28;99066.84;;;6.75;100.00
2184;BME280;1098;48.940;8.962;2023-02-01T13:17:59;99043.84;;;6.51;100.00
2184;BME280;1098;48.940;8.962;2023-02-01T13:20:34;99054.38;;;6.52;100.00
2184;BME280;1098;48.940;8.962;2023-02-01T13:23:05;99057.25;;;6.51;100.00
2184;BME280;1098;48.940;8.962;2023-02-01T13:25:39;99050.16;;;6.43;100.00
2184;BME280;1098;48.940;8.962;2023-02-01T13:28:11;99046.47;;;6.66;100.00
2184;BME280;1098;48.940;8.962;2023-02-01T13:30:46;99035.66;;;6.74;100.00
2184;BME280;1098;48.940;8.962;2023-02-01T13:33:24;99029.91;;;6.77;100.00
2184;BME280;1098;48.940;8.962;2023-02-01T13:36:34;99028.53;;;7.02;100.00
2184;BME280;1098;48.940;8.962;2023-02-01T13:39:19;99023.25;;;6.94;100.00
2184;BME280;1098;48.940;8.962;2023-02-01T13:41:56;99009.72;;;7.02;100.00
2184;BME280;1098;48.940;8.962;2023-02-01T13:44:27;99017.69;;;7.59;100.00
2184;BME280;1098;48.940;8.962;2023-02-01T13:46:57;99007.88;;;7.24;100.00
2184;BME280;1098;48.940;8.962;2023-02-01T13:49:27;99000.38;;;6.98;100.00
2184;BME280;1098;48.940;8.962;2023-02-01T13:51:57;99003.53;;;7.02;100.00
2184;BME280;1098;48.940;8.962;2023-02-01T13:54:27;99005.22;;;6.88;100.00
2184;BME280;1098;48.940;8.962;2023-02-01T13:56:57;98996.47;;;7.01;100.00
2184;BME280;1098;48.940;8.962;2023-02-01T13:59:44;98997.09;;;6.60;100.00
2184;BME280;1098;48.940;8.962;2023-02-01T14:05:02;98987.91;;;6.54;100.00
2184;BME280;1098;48.940;8.962;2023-02-01T14:07:31;98995.09;;;6.33;100.00
2184;BME280;1098;48.940;8.962;2023-02-01T14:12:53;99016.00;;;6.37;100.00
2184;BME280;1098;48.940;8.962;2023-02-01T14:15:31;99014.44;;;6.28;100.00
2184;BME280;1098;48.940;8.962;2023-02-01T14:18:02;99017.47;;;6.40;100.00
2184;BME280;1098;48.940;8.962;2023-02-01T14:20:51;99009.19;;;6.20;100.00
2184;BME280;1098;48.940;8.962;2023-02-01T14:23:54;99012.22;;;6.17;100.00
2184;BME280;1098;48.940;8.962;2023-02-01T14:26:23;99021.09;;;6.32;100.00
2184;BME280;1098;48.940;8.962;2023-02-01T14:32:22;99018.41;;;6.32;100.00
2184;BME280;1098;48.940;8.962;2023-02-01T14:35:26;99026.09;;;6.35;100.00
2184;BME280;1098;48.940;8.962;2023-02-01T14:38:01;99049.31;;;6.28;100.00
2184;BME280;1098;48.940;8.962;2023-02-01T14:40:31;99036.16;;;6.48;100.00
2184;BME280;1098;48.940;8.962;2023-02-01T14:43:02;99034.41;;;6.40;100.00
2184;BME280;1098;48.940;8.962;2023-02-01T14:45:50;99041.53;;;6.33;100.00
2184;BME280;1098;48.940;8.962;2023-02-01T14:48:43;99018.41;;;6.32;100.00
2184;BME280;1098;48.940;8.962;2023-02-01T14:51:13;99045.63;;;6.44;100.00
2184;BME280;1098;48.940;8.962;2023-02-01T14:53:44;99038.78;;;6.41;100.00
2184;BME280;1098;48.940;8.962;2023-02-01T14:56:18;99033.41;;;6.41;100.00
2184;BME280;1098;48.940;8.962;2023-02-01T14:58:50;99030.22;;;6.52;100.00
2184;BME280;1098;48.940;8.962;2023-02-01T15:01:22;99035.97;;;6.49;100.00
2184;BME280;1098;48.940;8.962;2023-02-01T15:03:52;99034.31;;;6.48;100.00
2184;BME280;1098;48.940;8.962;2023-02-01T15:06:27;99045.31;;;6.53;100.00
2184;BME280;1098;48.940;8.962;2023-02-01T15:08:59;99033.00;;;6.44;100.00
2184;BME280;1098;48.940;8.962;2023-02-01T15:11:29;99027.94;;;6.35;100.00
2184;BME280;1098;48.940;8.962;2023-02-01T15:13:58;99041.44;;;6.56;100.00
2184;BME280;1098;48.940;8.962;2023-02-01T15:16:29;99055.41;;;6.51;100.00
2184;BME280;1098;48.940;8.962;2023-02-01T15:19:11;99050.78;;;6.45;100.00
2184;BME280;1098;48.940;8.962;2023-02-01T15:21:43;99051.94;;;6.72;100.00
2184;BME280;1098;48.940;8.962;2023-02-01T15:24:20;99038.22;;;6.31;100.00
2184;BME280;1098;48.940;8.962;2023-02-01T15:26:53;99047.25;;;6.60;100.00
2184;BME280;1098;48.940;8.962;2023-02-01T15:29:29;99036.28;;;6.40;100.00
2184;BME280;1098;48.940;8.962;2023-02-01T15:31:59;99049.66;;;6.54;100.00
2184;BME280;1098;48.940;8.962;2023-02-01T15:34:46;99055.50;;;6.58;100.00
2184;BME280;1098;48.940;8.962;2023-02-01T15:37:16;99052.91;;;6.65;100.00
2184;BME280;1098;48.940;8.962;2023-02-01T15:40:18;99065.69;;;6.63;100.00
2184;BME280;1098;48.940;8.962;2023-02-01T15:42:52;99077.06;;;6.50;100.00
2184;BME280;1098;48.940;8.962;2023-02-01T15:45:25;99056.72;;;6.41;100.00
2184;BME280;1098;48.940;8.962;2023-02-01T15:47:55;99055.06;;;6.40;100.00
2184;BME280;1098;48.940;8.962;2023-02-01T15:50:25;99043.69;;;6.38;100.00
2184;BME280;1098;48.940;8.962;2023-02-01T15:52:55;99036.19;;;6.33;100.00
2184;BME280;1098;48.940;8.962;2023-02-01T15:55:36;99068.19;;;6.35;100.00
2184;BME280;1098;48.940;8.962;2023-02-01T15:58:08;99075.22;;;6.36;100.00
2184;BME280;1098;48.940;8.962;2023-02-01T16:00:41;99078.47;;;6.31;100.00
2184;BME280;1098;48.940;8.962;2023-02-01T16:03:27;99067.16;;;6.50;100.00
2184;BME280;1098;48.940;8.962;2023-02-01T16:05:56;99064.56;;;6.28;100.00
2184;BME280;1098;48.940;8.962;2023-02-01T16:08:26;99070.41;;;6.31;100.00
2184;BME280;1098;48.940;8.962;2023-02-01T16:11:01;99070.06;;;6.34;100.00
2184;BME280;1098;48.940;8.962;2023-02-01T16:13:29;99068.28;;;6.27;100.00
2184;BME280;1098;48.940;8.962;2023-02-01T16:15:58;99077.16;;;6.27;100.00
2184;BME280;1098;48.940;8.962;2023-02-01T16:18:26;99040.06;;;6.31;100.00
2184;BME280;1098;48.940;8.962;2023-02-01T16:20:54;99065.44;;;6.43;100.00
2184;BME280;1098;48.940;8.962;2023-02-01T16:23:23;99071.69;;;6.50;100.00
2184;BME280;1098;48.940;8.962;2023-02-01T16:25:51;99078.91;;;6.49;100.00
2184;BME280;1098;48.940;8.962;2023-02-01T16:28:21;99069.13;;;6.42;100.00
2184;BME280;1098;48.940;8.962;2023-02-01T16:30:49;99090.41;;;6.43;100.00
2184;BME280;1098;48.940;8.962;2023-02-01T16:33:19;99097.88;;;6.48;100.00
2184;BME280;1098;48.940;8.962;2023-02-01T16:35:51;99093.28;;;6.42;100.00
2184;BME280;1098;48.940;8.962;2023-02-01T16:38:20;99068.94;;;6.29;100.00
2184;BME280;1098;48.940;8.962;2023-02-01T16:40:50;99096.63;;;6.44;100.00
2184;BME280;1098;48.940;8.962;2023-02-01T16:43:22;99093.84;;;6.37;100.00
2184;BME280;1098;48.940;8.962;2023-02-01T16:45:53;99087.66;;;6.22;100.00
2184;BME280;1098;48.940;8.962;2023-02-01T16:48:23;99087.00;;;6.35;100.00
2184;BME280;1098;48.940;8.962;2023-02-01T16:50:52;99099.22;;;6.37;100.00
2184;BME280;1098;48.940;8.962;2023-02-01T16:53:22;99105.66;;;6.28;100.00
2184;BME280;1098;48.940;8.962;2023-02-01T16:55:50;99111.63;;;6.38;100.00
2184;BME280;1098;48.940;8.962;2023-02-01T16:58:19;99112.22;;;6.26;100.00
2184;BME280;1098;48.940;8.962;2023-02-01T17:00:48;99105.03;;;6.41;100.00
2184;BME280;1098;48.940;8.962;2023-02-01T17:03:17;99114.00;;;6.33;100.00
2184;BME280;1098;48.940;8.962;2023-02-01T17:05:47;99116.97;;;6.38;100.00
2184;BME280;1098;48.940;8.962;2023-02-01T17:08:16;99104.09;;;6.48;100.00
2184;BME280;1098;48.940;8.962;2023-02-01T17:10:46;99100.97;;;6.60;100.00
2184;BME280;1098;48.940;8.962;2023-02-01T17:13:15;99117.69;;;6.47;100.00
2184;BME280;1098;48.940;8.962;2023-02-01T17:15:45;99108.63;;;6.48;100.00
2184;BME280;1098;48.940;8.962;2023-02-01T17:18:16;99111.13;;;6.49;100.00
2184;BME280;1098;48.940;8.962;2023-02-01T17:20:44;99115.03;;;6.32;100.00
2184;BME280;1098;48.940;8.962;2023-02-01T17:23:18;99112.44;;;6.39;100.00
2184;BME280;1098;48.940;8.962;2023-02-01T17:25:46;99102.63;;;6.31;100.00
2184;BME280;1098;48.940;8.962;2023-02-01T17:28:15;99107.72;;;6.41;100.00
2184;BME280;1098;48.940;8.962;2023-02-01T17:30:43;99110.84;;;6.44;100.00
2184;BME280;1098;48.940;8.962;2023-02-01T17:33:20;99107.25;;;6.23;100.00
2184;BME280;1098;48.940;8.962;2023-02-01T17:35:50;99109.94;;;6.37;100.00
2184;BME280;1098;48.940;8.962;2023-02-01T17:38:20;99109.00;;;6.30;100.00
2184;BME280;1098;48.940;8.962;2023-02-01T17:40:49;99114.75;;;6.42;100.00
2184;BME280;1098;48.940;8.962;2023-02-01T17:43:21;99112.16;;;6.34;100.00
2184;BME280;1098;48.940;8.962;2023-02-01T17:45:52;99128.50;;;6.24;100.00
2184;BME280;1098;48.940;8.962;2023-02-01T17:48:23;99118.66;;;6.39;100.00
2184;BME280;1098;48.940;8.962;2023-02-01T17:50:54;99122.97;;;6.26;100.00
2184;BME280;1098;48.940;8.962;2023-02-01T17:53:24;99122.25;;;6.32;100.00
2184;BME280;1098;48.940;8.962;2023-02-01T17:55:52;99116.41;;;6.13;100.00
2184;BME280;1098;48.940;8.962;2023-02-01T17:58:23;99110.13;;;6.21;100.00
2184;BME280;1098;48.940;8.962;2023-02-01T18:00:52;99114.84;;;6.19;100.00
2184;BME280;1098;48.940;8.962;2023-02-01T18:03:25;99120.09;;;6.27;100.00
2184;BME280;1098;48.940;8.962;2023-02-01T18:05:54;99138.53;;;6.30;100.00
2184;BME280;1098;48.940;8.962;2023-02-01T18:08:25;99115.50;;;6.21;100.00
2184;BME280;1098;48.940;8.962;2023-02-01T18:10:56;99111.31;;;6.33;100.00
2184;BME280;1098;48.940;8.962;2023-02-01T18:13:27;99119.84;;;6.22;100.00
2184;BME280;1098;48.940;8.962;2023-02-01T18:15:55;99125.22;;;6.22;100.00
2184;BME280;1098;48.940;8.962;2023-02-01T18:18:26;99121.94;;;6.27;100.00
2184;BME280;1098;48.940;8.962;2023-02-01T18:20:57;99132.03;;;6.25;100.00
2184;BME280;1098;48.940;8.962;2023-02-01T18:23:25;99123.81;;;6.26;100.00
2184;BME280;1098;48.940;8.962;2023-02-01T18:25:54;99120.81;;;6.06;100.00
2184;BME280;1098;48.940;8.962;2023-02-01T18:28:22;99128.34;;;6.26;100.00
2184;BME280;1098;48.940;8.962;2023-02-01T18:30:50;99131.59;;;6.36;100.00
2184;BME280;1098;48.940;8.962;2023-02-01T18:33:20;99121.94;;;6.27;100.00
2184;BME280;1098;48.940;8.962;2023-02-01T18:35:49;99130.09;;;6.33;100.00
2184;BME280;1098;48.940;8.962;2023-02-01T18:38:18;99124.63;;;6.27;100.00
2184;BME280;1098;48.940;8.962;2023-02-01T18:40:48;99140.91;;;6.25;100.00
2184;BME280;1098;48.940;8.962;2023-02-01T18:43:17;99117.25;;;6.43;100.00
2184;BME280;1098;48.940;8.962;2023-02-01T18:45:46;99122.34;;;6.38;100.00
2184;BME280;1098;48.940;8.962;2023-02-01T18:48:15;99119.66;;;6.38;100.00
2184;BME280;1098;48.940;8.962;2023-02-01T18:50:44;99094.97;;;6.43;100.00
2184;BME280;1098;48.940;8.962;2023-02-01T18:53:15;99097.25;;;6.31;100.00
2184;BME280;1098;48.940;8.962;2023-02-01T18:55:46;99094.38;;;6.33;100.00
2184;BME280;1098;48.940;8.962;2023-02-01T18:58:14;99087.09;;;6.41;100.00